Main page
METAR-TAF:

METAR-TAF

Airports :

Christchurch International Airport

Christchurch, New Zealand

latitude: 43-29S, longitude: 172-33E, elevation: 38 m

Current weather observation

The report was made 20 minutes ago, at 05:30 UTC
Wind 3 kt from the Northwest
Temperature 11°C
Humidity 62%
Pressure 1007 hPa
Visibility 10 km or more

METAR: NZCH 170530Z AUTO 31003KT 9999 NCD 11/04 Q1007 NOSIG

Time: 17:50 (05:50 UTC)

Forecast

The report was made 43 minutes ago, at 05:07 UTC
Forecast valid from 17 at 06 UTC to 18 at 06 UTC
Wind 5 kt from the West
Visibility 10 km or more
no clouds below 1500 m and no cumulonimbus

TAF: NZCH 170507Z 1706/1806 26005KT CAVOK

Weather observations and forecasts of more than 4000 airports (METAR and TAF reports).

The available stations are represented by yellow and red dots on the map.

Hover mouse over dot to see the name of the station.

Then click to see weather observations and forecasts.

To change the map : click on the green buttons with a black cross to zoom in, on the green button with a dash to zoom out, or on the green arrows for adjacent maps.


METAR-TAF: